Time;durP1;ratioP1;P1;durP2;ratioP2;P2;SDS_P1;SDS_P2;PMS_P1;PMS_P2;Temp;Humidity;BMP_temperature;BMP_pressure;BME280_temperature;BME280_humidity;BME280_pressure;Samples;Min_cycle;Max_cycle;Signal;HPM_P1;HPM_P2
2023/12/11 00:00:16;;;;;;;7.95;4.22;;;;;;;7.67;100.00;98384.50;5005072;28;20025;-68
2023/12/11 00:02:42;;;;;;;9.02;4.15;;;;;;;7.53;100.00;98392.63;5006124;28;20711;-69
2023/12/11 00:05:08;;;;;;;8.05;4.75;;;;;;;7.43;100.00;98374.44;5003703;28;20436;-68
2023/12/11 00:07:33;;;;;;;7.07;4.43;;;;;;;7.43;100.00;98370.13;5003759;28;20516;-69
2023/12/11 00:09:58;;;;;;;7.82;4.43;;;;;;;7.11;100.00;98315.94;4985902;28;20171;-69
2023/12/11 00:12:24;;;;;;;9.82;4.57;;;;;;;7.42;100.00;98349.53;4997195;28;20544;-69
2023/12/11 00:14:49;;;;;;;7.60;4.25;;;;;;;7.56;100.00;98361.31;5001342;28;20047;-69
2023/12/11 00:17:15;;;;;;;7.93;4.25;;;;;;;7.50;100.00;98347.09;5001985;28;20029;-69
2023/12/11 00:19:40;;;;;;;10.27;4.15;;;;;;;7.40;100.00;98338.50;5005176;28;20743;-69
2023/12/11 00:22:06;;;;;;;8.98;4.28;;;;;;;7.31;100.00;98335.75;4994215;28;20130;-69
2023/12/11 00:24:31;;;;;;;7.93;4.32;;;;;;;7.50;100.00;98340.19;5006123;28;20048;-69
2023/12/11 00:26:56;;;;;;;6.65;4.03;;;;;;;7.59;100.00;98329.97;4988670;28;20022;-69
2023/12/11 00:29:22;;;;;;;7.38;4.20;;;;;;;7.61;100.00;98338.41;4991302;28;20028;-69
2023/12/11 00:31:50;;;;;;;7.00;3.97;;;;;;;7.56;100.00;98344.00;4995339;28;20073;-68
2023/12/11 00:34:18;;;;;;;9.02;3.88;;;;;;;7.37;100.00;98299.97;5007830;28;20688;-66
2023/12/11 00:36:48;;;;;;;8.00;4.40;;;;;;;7.31;100.00;98276.25;4995566;28;20110;-69
2023/12/11 00:39:16;;;;;;;6.20;3.88;;;;;;;7.53;100.00;98326.16;5001948;28;20022;-69
2023/12/11 00:41:43;;;;;;;7.93;4.15;;;;;;;7.53;100.00;98344.25;5001860;28;20038;-69
2023/12/11 00:44:09;;;;;;;7.93;4.55;;;;;;;7.42;100.00;98323.69;5005401;28;20151;-68
2023/12/11 00:46:34;;;;;;;8.10;4.10;;;;;;;7.47;100.00;98321.53;5002709;28;20194;-71
2023/12/11 00:49:02;;;;;;;7.72;4.22;;;;;;;7.22;100.00;98322.78;5002532;28;20029;-68
2023/12/11 00:51:27;;;;;;;7.63;4.55;;;;;;;7.29;100.00;98310.97;5004379;28;20037;-70
2023/12/11 00:53:53;;;;;;;8.73;4.40;;;;;;;7.25;100.00;98291.50;5037152;28;20144;-70
2023/12/11 00:56:18;;;;;;;8.13;4.10;;;;;;;7.56;100.00;98322.50;5016599;28;20029;-68
2023/12/11 00:58:44;;;;;;;8.65;4.22;;;;;;;7.38;100.00;98292.09;4987766;28;20042;-68
2023/12/11 01:01:12;;;;;;;7.05;4.18;;;;;;;7.43;100.00;98309.78;5005358;28;20041;-68
2023/12/11 01:03:37;;;;;;;7.07;4.03;;;;;;;7.28;100.00;98242.91;5017177;28;20033;-68
2023/12/11 01:06:06;;;;;;;7.25;3.90;;;;;;;7.56;100.00;98235.34;5004651;28;20110;-68
2023/12/11 01:08:38;;;;;;;7.35;3.95;;;;;;;7.39;100.00;98174.75;4988406;28;20434;-70
2023/12/11 01:11:06;;;;;;;6.68;3.80;;;;;;;7.57;100.00;98216.25;4990122;28;20033;-70
2023/12/11 01:13:34;;;;;;;8.02;4.22;;;;;;;7.63;100.00;98256.31;5035289;28;20040;-70
2023/12/11 01:16:00;;;;;;;7.15;4.13;;;;;;;7.63;100.00;98267.50;4989747;28;20757;-70
2023/12/11 01:18:26;;;;;;;7.55;4.05;;;;;;;7.51;100.00;98240.09;5005745;28;20029;-68
2023/12/11 01:20:51;;;;;;;7.40;4.03;;;;;;;7.36;100.00;98285.41;5015938;28;20024;-68
2023/12/11 01:23:20;;;;;;;7.53;4.07;;;;;;;7.29;100.00;98313.56;5003407;28;20025;-68
2023/12/11 01:25:45;;;;;;;7.53;4.50;;;;;;;7.35;100.00;98323.38;4987847;28;20029;-68
2023/12/11 01:28:11;;;;;;;7.68;4.10;;;;;;;7.36;100.00;98326.81;4984809;28;20568;-68
2023/12/11 01:30:39;;;;;;;8.27;4.45;;;;;;;7.33;100.00;98312.34;4988378;28;20140;-68
2023/12/11 01:33:06;;;;;;;8.52;4.45;;;;;;;7.31;100.00;98319.41;5003335;28;20215;-68
2023/12/11 01:35:36;;;;;;;9.02;5.10;;;;;;;7.11;100.00;98324.50;5010702;28;20786;-68
2023/12/11 01:38:01;;;;;;;7.88;4.85;;;;;;;7.17;100.00;98332.69;4988457;28;20041;-68
2023/12/11 01:40:27;;;;;;;9.15;4.57;;;;;;;7.28;100.00;98351.53;5000791;28;20033;-70
2023/12/11 01:42:54;;;;;;;9.25;4.95;;;;;;;7.30;100.00;98349.66;4996882;28;20038;-68
2023/12/11 01:45:20;;;;;;;8.32;5.00;;;;;;;7.25;100.00;98351.00;4995788;28;20060;-70
2023/12/11 01:47:51;;;;;;;8.65;4.82;;;;;;;7.09;100.00;98344.50;5024670;28;20712;-68
2023/12/11 01:50:16;;;;;;;8.40;5.32;;;;;;;7.20;100.00;98342.78;5004511;28;20029;-70
2023/12/11 01:52:42;;;;;;;9.10;5.70;;;;;;;7.18;100.00;98326.59;5014435;28;20025;-68
2023/12/11 01:55:07;;;;;;;7.53;5.07;;;;;;;7.23;100.00;98327.84;5001819;28;20082;-68
2023/12/11 01:57:34;;;;;;;10.50;6.07;;;;;;;6.99;100.00;98340.22;5012099;28;20037;-68
2023/12/11 02:00:00;;;;;;;11.18;5.18;;;;;;;7.01;100.00;98310.75;5003477;28;21222;-68
2023/12/11 02:02:25;;;;;;;8.25;4.78;;;;;;;6.85;100.00;98331.06;4996519;28;20045;-68
2023/12/11 02:04:54;;;;;;;9.13;5.43;;;;;;;6.93;100.00;98277.75;4994121;28;20029;-68
2023/12/11 02:07:19;;;;;;;9.38;5.55;;;;;;;6.73;100.00;98289.81;4993252;28;20065;-68
2023/12/11 02:09:47;;;;;;;9.30;5.50;;;;;;;6.81;100.00;98273.66;5009289;28;20155;-68
2023/12/11 02:12:12;;;;;;;10.15;5.90;;;;;;;6.73;100.00;98318.22;4996825;28;20065;-67
2023/12/11 02:14:40;;;;;;;9.30;5.38;;;;;;;6.95;100.00;98259.53;5007479;28;20664;-68
2023/12/11 02:17:13;;;;;;;10.05;5.38;;;;;;;6.77;100.00;98292.09;5003083;28;20671;-68
2023/12/11 02:19:38;;;;;;;7.93;5.05;;;;;;;6.63;100.00;98234.66;5008490;28;20033;-68
2023/12/11 02:22:06;;;;;;;9.07;5.53;;;;;;;6.94;100.00;98281.19;5002793;28;20851;-68
2023/12/11 02:24:34;;;;;;;9.30;5.80;;;;;;;6.91;100.00;98265.94;4992049;28;20029;-68
2023/12/11 02:27:00;;;;;;;10.45;6.22;;;;;;;6.92;100.00;98263.22;4993883;28;20057;-68
2023/12/11 02:29:26;;;;;;;10.05;5.80;;;;;;;6.65;100.00;98206.13;5005842;28;20136;-68
2023/12/11 02:31:56;;;;;;;8.63;5.47;;;;;;;6.73;100.00;98199.38;5002130;28;20882;-68
2023/12/11 02:34:21;;;;;;;9.73;5.72;;;;;;;6.65;100.00;98180.28;5009589;28;20170;-67
2023/12/11 02:36:48;;;;;;;9.18;5.20;;;;;;;6.88;100.00;98222.25;5008777;28;20440;-68
2023/12/11 02:39:13;;;;;;;9.65;5.78;;;;;;;6.74;100.00;98182.09;5002081;28;20146;-69
2023/12/11 02:41:38;;;;;;;9.85;6.18;;;;;;;6.97;100.00;98213.69;4996081;28;20794;-68
2023/12/11 02:44:08;;;;;;;10.55;6.43;;;;;;;6.70;100.00;98217.69;5011115;28;20136;-70
2023/12/11 02:46:38;;;;;;;11.25;6.40;;;;;;;6.85;100.00;98218.16;5007474;28;20032;-68
2023/12/11 02:49:03;;;;;;;9.63;6.15;;;;;;;6.74;100.00;98197.59;5012191;28;20033;-67
2023/12/11 02:51:31;;;;;;;8.82;6.00;;;;;;;6.67;100.00;98206.81;5014716;28;20130;-68
2023/12/11 02:53:58;;;;;;;9.05;5.97;;;;;;;6.60;100.00;98205.69;5014457;28;20041;-70
2023/12/11 02:56:26;;;;;;;8.65;5.03;;;;;;;6.52;100.00;98206.34;5018401;28;20099;-70
2023/12/11 02:58:54;;;;;;;8.60;5.18;;;;;;;6.49;100.00;98207.41;5009090;28;20033;-68
2023/12/11 03:01:19;;;;;;;9.60;5.82;;;;;;;6.58;100.00;98208.38;5007859;28;20033;-68
2023/12/11 03:03:50;;;;;;;10.85;6.22;;;;;;;6.43;100.00;98178.69;4992046;28;20064;-70
2023/12/11 03:06:21;;;;;;;10.32;6.30;;;;;;;6.72;100.00;98215.00;4992152;28;20021;-71
2023/12/11 03:08:47;;;;;;;9.98;6.40;;;;;;;6.72;100.00;98200.28;4998076;28;20460;-70
2023/12/11 03:11:15;;;;;;;11.00;7.00;;;;;;;6.59;100.00;98181.63;4989868;28;20029;-69
2023/12/11 03:13:42;;;;;;;10.93;6.65;;;;;;;6.65;100.00;98168.16;4994763;28;20370;-69
2023/12/11 03:16:12;;;;;;;11.02;6.63;;;;;;;6.67;100.00;98181.78;5006080;28;20032;-68
2023/12/11 03:18:37;;;;;;;11.40;6.88;;;;;;;6.68;100.00;98198.09;5008015;28;20346;-71
2023/12/11 03:21:05;;;;;;;11.52;6.63;;;;;;;6.63;100.00;98195.09;5008943;28;20425;-70
2023/12/11 03:23:31;;;;;;;11.40;6.53;;;;;;;6.31;100.00;98191.66;4992852;28;20028;-70
2023/12/11 03:25:58;;;;;;;10.07;6.13;;;;;;;6.45;100.00;98242.19;5006411;28;20022;-69
2023/12/11 03:28:28;;;;;;;9.68;6.07;;;;;;;6.54;100.00;98219.94;5015043;28;20033;-70
2023/12/11 03:30:54;;;;;;;11.43;6.10;;;;;;;6.40;100.00;98215.09;5001793;28;20361;-69
2023/12/11 03:33:21;;;;;;;8.48;6.10;;;;;;;6.16;100.00;98198.13;4992587;28;20036;-69
2023/12/11 03:35:47;;;;;;;10.63;7.03;;;;;;;5.94;100.00;98228.22;4995749;28;20497;-69
2023/12/11 03:38:12;;;;;;;9.60;6.45;;;;;;;6.10;100.00;98222.66;5001885;28;20037;-69
2023/12/11 03:40:38;;;;;;;11.15;6.63;;;;;;;6.20;100.00;98175.44;5004474;28;20052;-69
2023/12/11 03:43:03;;;;;;;10.73;6.60;;;;;;;6.11;100.00;98175.25;4997072;28;20033;-70
2023/12/11 03:45:31;;;;;;;9.88;6.55;;;;;;;5.84;100.00;98136.22;5005215;28;20552;-69
2023/12/11 03:47:56;;;;;;;10.43;6.28;;;;;;;6.20;100.00;98193.50;4992533;28;20043;-69
2023/12/11 03:50:22;;;;;;;11.10;6.30;;;;;;;6.33;100.00;98200.13;4994872;28;20041;-70
2023/12/11 03:52:49;;;;;;;10.90;6.78;;;;;;;6.11;100.00;98161.53;5005219;28;20036;-70
2023/12/11 03:55:15;;;;;;;13.48;6.97;;;;;;;6.31;100.00;98199.41;4990703;28;20658;-70
2023/12/11 03:57:43;;;;;;;11.52;7.20;;;;;;;6.24;100.00;98205.22;5011372;28;20100;-68
2023/12/11 04:00:08;;;;;;;12.15;6.57;;;;;;;6.26;100.00;98229.16;5003008;28;20032;-70
2023/12/11 04:02:34;;;;;;;11.43;7.18;;;;;;;6.05;100.00;98242.88;4992601;28;20116;-68
2023/12/11 04:04:59;;;;;;;11.05;7.18;;;;;;;6.07;100.00;98253.06;5005849;28;20031;-70
2023/12/11 04:07:25;;;;;;;11.88;6.95;;;;;;;6.12;100.00;98253.53;5009056;28;20124;-72
2023/12/11 04:09:50;;;;;;;12.35;7.47;;;;;;;6.16;100.00;98236.84;5001871;28;20026;-71
2023/12/11 04:12:16;;;;;;;9.68;6.90;;;;;;;6.13;100.00;98250.81;5005567;28;20033;-70
2023/12/11 04:14:43;;;;;;;10.05;6.38;;;;;;;6.20;100.00;98248.53;5007617;28;20073;-71
2023/12/11 04:17:09;;;;;;;9.38;6.80;;;;;;;5.96;100.00;98218.63;4997648;28;20025;-70
2023/12/11 04:19:34;;;;;;;11.20;6.85;;;;;;;6.11;100.00;98238.97;4994617;28;20025;-71
2023/12/11 04:22:00;;;;;;;10.80;6.78;;;;;;;6.27;100.00;98262.59;5002353;28;20047;-70
2023/12/11 04:24:25;;;;;;;12.90;7.53;;;;;;;6.32;100.00;98251.91;5005715;28;20021;-70
2023/12/11 04:26:50;;;;;;;11.20;7.18;;;;;;;6.14;100.00;98246.47;5004365;28;20037;-70
2023/12/11 04:29:16;;;;;;;14.07;7.20;;;;;;;6.07;100.00;98240.19;5003471;28;20022;-70
2023/12/11 04:31:41;;;;;;;11.75;7.40;;;;;;;6.12;100.00;98250.94;4987598;28;20487;-71
2023/12/11 04:34:07;;;;;;;11.55;7.60;;;;;;;6.23;100.00;98256.03;5006644;28;20044;-68
2023/12/11 04:36:34;;;;;;;11.32;7.13;;;;;;;6.19;100.00;98238.34;4994282;28;20040;-69
2023/12/11 04:39:02;;;;;;;11.05;7.15;;;;;;;5.97;100.00;98209.16;5010137;28;20030;-70
2023/12/11 04:41:27;;;;;;;15.30;7.32;;;;;;;6.19;100.00;98259.84;5012493;28;20060;-70
2023/12/11 04:43:53;;;;;;;11.77;7.55;;;;;;;5.88;100.00;98199.53;5008341;28;21064;-71
2023/12/11 04:46:20;;;;;;;12.82;7.65;;;;;;;6.14;100.00;98223.25;4989662;28;20033;-71
2023/12/11 04:48:46;;;;;;;10.75;7.40;;;;;;;5.86;100.00;98188.50;5002329;28;20065;-69
2023/12/11 04:51:11;;;;;;;13.52;7.70;;;;;;;5.90;100.00;98177.81;4993258;28;20132;-70
2023/12/11 04:53:39;;;;;;;13.60;7.70;;;;;;;5.71;100.00;98163.03;5005406;28;20500;-70
2023/12/11 04:56:08;;;;;;;12.93;8.15;;;;;;;5.97;100.00;98209.94;5007213;28;20119;-70
2023/12/11 04:58:34;;;;;;;12.38;7.15;;;;;;;6.09;100.00;98202.94;5018061;28;20029;-71
2023/12/11 05:00:59;;;;;;;11.20;7.43;;;;;;;5.96;100.00;98158.47;4993456;28;20096;-68
2023/12/11 05:03:25;;;;;;;13.55;8.80;;;;;;;6.06;100.00;98208.38;5006025;28;20099;-70
2023/12/11 05:05:50;;;;;;;13.65;9.57;;;;;;;6.03;100.00;98207.81;5010225;28;20042;-70
2023/12/11 05:08:15;;;;;;;16.80;10.35;;;;;;;5.85;100.00;98199.78;5000074;28;20041;-70
2023/12/11 05:10:41;;;;;;;15.68;10.32;;;;;;;6.05;100.00;98165.44;5006951;28;20044;-70
2023/12/11 05:13:07;;;;;;;15.30;9.77;;;;;;;6.09;100.00;98140.19;5014486;28;20029;-70
2023/12/11 05:15:33;;;;;;;16.98;10.15;;;;;;;6.13;100.00;98110.59;5005382;28;20211;-71
2023/12/11 05:17:58;;;;;;;15.20;9.77;;;;;;;6.26;100.00;98144.78;4990390;28;20034;-70
2023/12/11 05:20:23;;;;;;;13.98;9.52;;;;;;;6.07;100.00;98160.97;5008485;28;20788;-70
2023/12/11 05:22:51;;;;;;;15.93;9.82;;;;;;;5.92;100.00;98165.59;4990437;28;20058;-70
2023/12/11 05:25:20;;;;;;;14.52;9.77;;;;;;;6.03;100.00;98192.34;4995824;28;20511;-70
2023/12/11 05:27:45;;;;;;;12.50;8.48;;;;;;;5.69;100.00;98185.53;5006678;28;20046;-70
2023/12/11 05:30:14;;;;;;;13.95;7.97;;;;;;;5.89;100.00;98234.72;4991943;28;20563;-71
2023/12/11 05:32:44;;;;;;;12.77;7.32;;;;;;;5.92;100.00;98226.72;5002368;28;20492;-70
2023/12/11 05:35:09;;;;;;;10.82;7.35;;;;;;;5.78;100.00;98249.28;5025964;28;20021;-70
2023/12/11 05:37:35;;;;;;;13.18;7.93;;;;;;;5.97;100.00;98271.91;4997445;28;20405;-70
2023/12/11 05:40:00;;;;;;;11.63;7.97;;;;;;;5.69;100.00;98195.84;4996228;28;20052;-70
2023/12/11 05:42:26;;;;;;;10.07;7.10;;;;;;;5.76;100.00;98181.50;4997077;28;20041;-70
2023/12/11 05:44:51;;;;;;;13.55;8.25;;;;;;;6.11;100.00;98201.06;5012993;28;20083;-70
2023/12/11 05:47:17;;;;;;;11.93;7.30;;;;;;;6.05;100.00;98196.41;5011497;28;20033;-70
2023/12/11 05:49:42;;;;;;;12.75;7.95;;;;;;;6.05;100.00;98203.34;5009857;28;20018;-71
2023/12/11 05:52:10;;;;;;;15.75;8.77;;;;;;;6.12;100.00;98212.22;4994844;28;20047;-70
2023/12/11 05:54:35;;;;;;;11.25;8.18;;;;;;;6.08;100.00;98203.09;5008185;28;20057;-71
2023/12/11 05:57:01;;;;;;;14.18;8.05;;;;;;;6.22;100.00;98223.41;4992045;28;20040;-71
2023/12/11 05:59:26;;;;;;;12.55;8.25;;;;;;;6.15;100.00;98222.28;5016544;28;20045;-71
2023/12/11 06:01:52;;;;;;;15.93;8.82;;;;;;;6.24;100.00;98207.81;5014264;28;20985;-70
2023/12/11 06:04:23;;;;;;;15.00;9.40;;;;;;;6.14;100.00;98218.88;5003625;28;20041;-70
2023/12/11 06:06:48;;;;;;;15.25;8.82;;;;;;;6.24;100.00;98233.63;4993999;28;20025;-70
2023/12/11 06:09:19;;;;;;;16.02;9.68;;;;;;;5.95;100.00;98167.09;5003198;28;20746;-71
2023/12/11 06:11:44;;;;;;;16.48;10.00;;;;;;;6.23;100.00;98211.34;5011969;28;20036;-70
2023/12/11 06:14:12;;;;;;;12.50;8.68;;;;;;;6.11;100.00;98197.66;5005403;28;20041;-71
2023/12/11 06:16:38;;;;;;;13.70;8.48;;;;;;;6.21;100.00;98197.75;5007411;28;20065;-71
2023/12/11 06:19:05;;;;;;;15.80;9.50;;;;;;;6.32;100.00;98223.50;4991511;28;20144;-70
2023/12/11 06:21:31;;;;;;;19.60;9.70;;;;;;;6.26;100.00;98227.41;5005722;28;20659;-70
2023/12/11 06:23:56;;;;;;;17.17;9.85;;;;;;;6.23;100.00;98243.13;5002900;28;20105;-70
2023/12/11 06:26:28;;;;;;;15.02;9.32;;;;;;;6.19;100.00;98246.91;5012123;28;20151;-70
2023/12/11 06:29:00;;;;;;;13.40;8.63;;;;;;;6.25;100.00;98243.00;4990569;28;20030;-70
2023/12/11 06:31:26;;;;;;;14.32;9.10;;;;;;;6.39;100.00;98241.84;5014663;28;20037;-68
2023/12/11 06:33:52;;;;;;;13.25;9.52;;;;;;;6.39;100.00;98245.28;4992773;28;20410;-71
2023/12/11 06:36:17;;;;;;;13.23;8.68;;;;;;;6.44;100.00;98227.63;5010497;28;20734;-71
2023/12/11 06:38:43;;;;;;;16.02;9.45;;;;;;;6.45;100.00;98241.38;4990936;28;20040;-70
2023/12/11 06:41:08;;;;;;;15.82;9.13;;;;;;;6.43;100.00;98238.09;4995465;28;20029;-70
2023/12/11 06:43:35;;;;;;;14.18;9.07;;;;;;;6.31;100.00;98237.34;5008986;28;20025;-70
2023/12/11 06:46:06;;;;;;;17.42;9.50;;;;;;;6.37;100.00;98242.00;4996216;28;20029;-69
2023/12/11 06:48:32;;;;;;;14.25;9.45;;;;;;;6.10;100.00;98198.63;4993274;28;20092;-69
2023/12/11 06:50:57;;;;;;;16.33;10.07;;;;;;;6.36;100.00;98237.78;5010366;28;20026;-69
2023/12/11 06:53:23;;;;;;;16.13;9.80;;;;;;;6.30;100.00;98233.94;5004351;28;20073;-69
2023/12/11 06:55:48;;;;;;;15.80;9.55;;;;;;;6.18;100.00;98240.09;4991641;28;20476;-69
2023/12/11 06:58:16;;;;;;;13.10;9.65;;;;;;;6.15;100.00;98230.03;5012827;28;21318;-69
2023/12/11 07:00:41;;;;;;;15.35;10.13;;;;;;;6.07;100.00;98220.34;4993127;28;20133;-70
2023/12/11 07:03:07;;;;;;;14.98;9.68;;;;;;;6.12;100.00;98218.19;4992649;28;20058;-69
2023/12/11 07:05:32;;;;;;;15.45;10.27;;;;;;;6.22;100.00;98205.34;4991819;28;20095;-69
2023/12/11 07:08:00;;;;;;;14.48;8.93;;;;;;;6.26;100.00;98222.25;4995619;28;20441;-69
2023/12/11 07:10:28;;;;;;;15.20;8.70;;;;;;;6.18;100.00;98214.28;4994514;28;20041;-69
2023/12/11 07:12:55;;;;;;;11.10;7.28;;;;;;;6.26;100.00;98190.41;5001962;28;20038;-69
2023/12/11 07:15:21;;;;;;;11.93;6.90;;;;;;;6.38;100.00;98193.75;4993684;28;20113;-69
2023/12/11 07:17:48;;;;;;;9.85;6.90;;;;;;;6.50;100.00;98184.97;4998260;28;20037;-69
2023/12/11 07:20:14;;;;;;;10.80;6.60;;;;;;;6.51;100.00;98156.41;4994275;28;20041;-69
2023/12/11 07:22:39;;;;;;;12.10;6.57;;;;;;;6.68;100.00;98146.41;5009560;28;20041;-69
2023/12/11 07:25:05;;;;;;;13.10;7.30;;;;;;;6.55;100.00;98125.97;5011507;28;20029;-69
2023/12/11 07:27:30;;;;;;;11.48;6.75;;;;;;;6.67;100.00;98126.72;5011882;28;20535;-70
2023/12/11 07:30:00;;;;;;;10.05;6.78;;;;;;;6.67;100.00;98124.94;5005627;28;20037;-68
2023/12/11 07:32:28;;;;;;;10.40;6.72;;;;;;;6.73;100.00;98121.84;4995494;28;20455;-71
2023/12/11 07:34:56;;;;;;;10.70;6.95;;;;;;;6.69;100.00;98122.22;5008610;28;20039;-69
2023/12/11 07:37:24;;;;;;;11.07;6.65;;;;;;;6.70;100.00;98100.63;5008451;28;20034;-69
2023/12/11 07:39:49;;;;;;;9.82;6.40;;;;;;;6.83;100.00;98079.69;5032674;28;20033;-69
2023/12/11 07:42:14;;;;;;;12.43;7.40;;;;;;;6.69;100.00;98122.22;5010271;28;20042;-68
2023/12/11 07:44:42;;;;;;;11.60;6.53;;;;;;;6.65;100.00;98157.03;5006900;28;20099;-71
2023/12/11 07:47:08;;;;;;;12.45;7.45;;;;;;;6.68;100.00;98156.75;5004562;28;20105;-68
2023/12/11 07:49:33;;;;;;;9.60;6.25;;;;;;;6.42;100.00;98090.06;5000781;28;20132;-69
2023/12/11 07:52:04;;;;;;;9.90;6.20;;;;;;;6.70;100.00;98111.75;4997758;28;20029;-71
2023/12/11 07:54:29;;;;;;;9.65;6.00;;;;;;;6.83;100.00;98090.84;5007776;28;20629;-70
2023/12/11 07:57:00;;;;;;;10.63;6.47;;;;;;;6.91;100.00;98095.34;4996703;28;20033;-69
2023/12/11 07:59:25;;;;;;;10.15;6.03;;;;;;;7.10;100.00;98151.41;5003879;28;20839;-69
2023/12/11 08:01:52;;;;;;;13.10;6.47;;;;;;;6.74;100.00;98138.97;5040088;28;20030;-69
2023/12/11 08:04:17;;;;;;;9.20;6.20;;;;;;;6.88;100.00;98180.88;5008613;28;20788;-69
2023/12/11 08:06:45;;;;;;;9.23;6.20;;;;;;;6.95;100.00;98174.25;5007559;28;20052;-68
2023/12/11 08:09:15;;;;;;;8.00;4.65;;;;;;;7.02;100.00;98140.94;5012650;28;20040;-69
2023/12/11 08:11:43;;;;;;;8.93;5.45;;;;;;;7.18;100.00;98125.72;5004866;28;20047;-69
2023/12/11 08:14:11;;;;;;;9.63;5.45;;;;;;;7.06;100.00;98073.31;5008705;28;20029;-69
2023/12/11 08:16:38;;;;;;;8.75;5.68;;;;;;;7.31;100.00;98113.31;4998379;28;20037;-70
2023/12/11 08:19:04;;;;;;;9.32;5.35;;;;;;;7.32;100.00;98133.06;4996197;28;20857;-69
2023/12/11 08:21:29;;;;;;;10.27;5.68;;;;;;;7.29;100.00;98151.44;4992423;28;20065;-69
2023/12/11 08:23:55;;;;;;;9.15;5.20;;;;;;;7.04;100.00;98106.22;4988540;28;20471;-68
2023/12/11 08:26:22;;;;;;;7.53;4.50;;;;;;;7.32;100.00;98098.66;5008897;28;20209;-69
2023/12/11 08:28:49;;;;;;;7.80;5.05;;;;;;;7.35;100.00;98116.47;4996281;28;20099;-69
2023/12/11 08:31:15;;;;;;;7.38;5.03;;;;;;;7.40;100.00;98131.59;5001035;28;20121;-69
2023/12/11 08:33:40;;;;;;;8.05;4.85;;;;;;;7.56;100.00;98157.72;5013729;28;20100;-69
2023/12/11 08:36:06;;;;;;;10.88;5.70;;;;;;;7.55;100.00;98160.44;5006290;28;20046;-69
2023/12/11 08:38:32;;;;;;;9.77;4.82;;;;;;;7.27;100.00;98095.66;5003238;28;20103;-69
2023/12/11 08:40:58;;;;;;;7.15;3.72;;;;;;;7.52;100.00;98130.50;4993581;28;20029;-69
2023/12/11 08:43:26;;;;;;;7.35;4.00;;;;;;;7.67;100.00;98154.97;5007009;28;20025;-68
2023/12/11 08:45:51;;;;;;;6.80;3.80;;;;;;;7.72;100.00;98154.59;5006352;28;20053;-68
2023/12/11 08:48:16;;;;;;;7.55;4.05;;;;;;;7.82;100.00;98163.13;5009587;28;20034;-68
2023/12/11 08:50:42;;;;;;;8.65;4.30;;;;;;;7.86;100.00;98155.91;5009062;28;20099;-69
2023/12/11 08:53:07;;;;;;;8.52;4.28;;;;;;;7.88;100.00;98157.44;5004744;28;20049;-68
2023/12/11 08:55:33;;;;;;;8.18;4.57;;;;;;;7.82;100.00;98157.16;4994874;28;20025;-68
2023/12/11 08:57:58;;;;;;;7.93;4.30;;;;;;;7.75;100.00;98150.91;4992508;28;20029;-68
2023/12/11 09:00:24;;;;;;;8.95;5.38;;;;;;;7.67;100.00;98136.06;5003102;28;20034;-69
2023/12/11 09:02:51;;;;;;;8.25;5.10;;;;;;;7.64;100.00;98150.06;5004951;28;20039;-68
2023/12/11 09:05:19;;;;;;;7.50;4.40;;;;;;;7.76;100.00;98150.75;4986560;28;20033;-69
2023/12/11 09:07:49;;;;;;;9.13;5.05;;;;;;;7.63;100.00;98160.56;4996971;28;20469;-68
2023/12/11 09:10:14;;;;;;;8.15;5.10;;;;;;;7.74;100.00;98170.78;5010202;28;20036;-69
2023/12/11 09:12:41;;;;;;;10.50;5.68;;;;;;;7.74;100.00;98159.59;4997473;28;20037;-69
2023/12/11 09:15:09;;;;;;;12.45;6.43;;;;;;;7.72;100.00;98152.00;4998844;28;20037;-69
2023/12/11 09:17:38;;;;;;;10.73;6.70;;;;;;;7.73;100.00;98143.25;5010516;28;20091;-69
2023/12/11 09:20:08;;;;;;;10.35;6.18;;;;;;;7.86;100.00;98161.09;4998039;28;20099;-69
2023/12/11 09:22:33;;;;;;;14.15;8.05;;;;;;;7.77;100.00;98125.69;4996289;28;20034;-68
2023/12/11 09:24:59;;;;;;;11.45;7.03;;;;;;;7.84;100.00;98142.31;4996879;28;20890;-68
2023/12/11 09:27:24;;;;;;;10.55;5.85;;;;;;;7.88;100.00;98148.81;5005670;28;20026;-68
2023/12/11 09:29:50;;;;;;;9.10;5.20;;;;;;;7.94;100.00;98170.75;4996562;28;20538;-69
2023/12/11 09:32:15;;;;;;;11.45;6.03;;;;;;;7.73;100.00;98114.00;5025107;28;20041;-68
2023/12/11 09:34:44;;;;;;;9.38;5.32;;;;;;;7.88;100.00;98133.28;4993870;28;20046;-68
2023/12/11 09:37:12;;;;;;;9.07;5.53;;;;;;;7.71;100.00;98075.31;5008370;28;20121;-68
2023/12/11 09:39:39;;;;;;;12.73;6.43;;;;;;;7.82;100.00;98071.75;5013814;28;20029;-68
2023/12/11 09:42:05;;;;;;;18.95;10.02;;;;;;;8.17;100.00;98135.00;4990288;28;20037;-69
2023/12/11 09:44:31;;;;;;;22.73;12.85;;;;;;;8.07;100.00;98140.22;4991148;28;20029;-68
2023/12/11 09:47:21;;;;;;;19.00;10.23;;;;;;;8.10;100.00;98126.97;5004414;28;20741;-68
2023/12/11 09:49:47;;;;;;;12.48;6.90;;;;;;;7.93;100.00;98104.41;4985976;28;20069;-68
2023/12/11 09:52:16;;;;;;;8.73;5.13;;;;;;;8.12;100.00;98124.25;5017932;28;20116;-68
2023/12/11 09:54:42;;;;;;;6.60;3.40;;;;;;;7.98;100.00;98056.44;5005321;28;20053;-68
2023/12/11 09:57:15;;;;;;;8.30;3.35;;;;;;;8.49;100.00;98077.66;5006720;28;20713;-69
2023/12/11 09:59:41;;;;;;;5.40;2.65;;;;;;;8.73;100.00;98068.53;5003293;28;20033;-68
2023/12/11 10:02:12;;;;;;;6.60;2.83;;;;;;;8.79;100.00;98083.47;5010311;28;20025;-69
2023/12/11 10:04:37;;;;;;;4.65;2.10;;;;;;;8.95;100.00;98054.31;4988806;28;20109;-67
2023/12/11 10:07:05;;;;;;;4.82;2.10;;;;;;;8.91;100.00;98038.22;4993931;28;20033;-68
2023/12/11 10:09:35;;;;;;;6.70;2.30;;;;;;;8.50;100.00;97991.16;5009604;28;20024;-69
2023/12/11 10:12:04;;;;;;;5.50;2.60;;;;;;;8.96;100.00;98100.84;5000913;28;20033;-69
2023/12/11 10:14:30;;;;;;;5.43;2.95;;;;;;;8.68;100.00;98086.28;5012318;28;20080;-68
2023/12/11 10:16:56;;;;;;;5.43;1.90;;;;;;;9.01;100.00;98101.19;5006881;28;20609;-69
2023/12/11 10:19:32;;;;;;;5.75;1.67;;;;;;;9.12;98.47;98055.25;5012471;28;20026;-68
2023/12/11 10:22:00;;;;;;;3.33;1.13;;;;;;;9.25;95.37;98032.34;5012491;28;20026;-67
2023/12/11 10:24:26;;;;;;;4.30;1.63;;;;;;;9.33;96.57;98008.25;4996145;28;20037;-68
2023/12/11 10:27:00;;;;;;;3.80;1.42;;;;;;;9.50;97.75;98009.19;5015784;28;20025;-68
2023/12/11 10:29:27;;;;;;;5.53;2.20;;;;;;;9.38;100.00;98011.19;5008532;28;20057;-68
2023/12/11 10:32:00;;;;;;;6.25;2.55;;;;;;;9.34;100.00;98009.88;4996748;28;20083;-67
2023/12/11 10:34:42;;;;;;;7.68;3.47;;;;;;;9.10;100.00;98013.91;5001702;28;20128;-67
2023/12/11 10:37:13;;;;;;;7.35;3.58;;;;;;;9.07;100.00;98006.41;4995483;28;20117;-68
2023/12/11 10:39:51;;;;;;;7.22;3.25;;;;;;;8.96;100.00;98007.50;5010209;28;20068;-68
2023/12/11 10:42:18;;;;;;;5.65;2.97;;;;;;;9.16;100.00;98002.97;5010253;28;20593;-68
2023/12/11 10:44:46;;;;;;;4.68;1.60;;;;;;;9.58;97.44;98017.84;4997339;28;20024;-67
2023/12/11 10:47:12;;;;;;;3.03;1.10;;;;;;;9.82;95.28;98011.16;5007155;28;20036;-65
2023/12/11 10:49:41;;;;;;;3.90;1.10;;;;;;;9.82;95.45;97991.19;4989967;28;20046;-67
2023/12/11 10:52:07;;;;;;;3.75;1.10;;;;;;;9.89;95.68;98000.94;4995314;28;20030;-67
2023/12/11 10:54:35;;;;;;;5.57;1.60;;;;;;;9.83;96.92;97966.03;4991971;28;20816;-68
2023/12/11 10:57:04;;;;;;;6.43;1.92;;;;;;;9.77;97.94;97975.25;5008959;28;20028;-67
2023/12/11 10:59:31;;;;;;;5.63;2.20;;;;;;;9.62;100.00;98013.97;4990566;28;20052;-67
2023/12/11 11:02:00;;;;;;;5.93;2.20;;;;;;;9.61;99.58;98014.13;5013940;28;20030;-68
2023/12/11 11:04:26;;;;;;;5.57;2.30;;;;;;;9.69;98.89;98032.34;5003683;28;20042;-68
2023/12/11 11:06:57;;;;;;;6.97;2.60;;;;;;;9.72;100.00;98044.19;4991103;28;20025;-68
2023/12/11 11:09:41;;;;;;;4.55;1.80;;;;;;;9.66;96.61;98040.44;5005455;28;20048;-68
2023/12/11 11:12:38;;;;;;;4.57;1.95;;;;;;;9.71;98.99;98025.22;5008085;28;20030;-68
2023/12/11 11:15:05;;;;;;;4.43;1.65;;;;;;;9.55;98.93;97984.41;5016126;28;20033;-68
2023/12/11 11:17:56;;;;;;;4.45;1.70;;;;;;;10.04;97.12;98030.59;4994764;28;20025;-68
2023/12/11 11:20:23;;;;;;;5.63;1.80;;;;;;;10.07;97.15;98051.03;5009074;28;20079;-69
2023/12/11 11:22:49;;;;;;;4.93;1.38;;;;;;;10.31;95.88;98037.38;5009747;28;20052;-69
2023/12/11 11:25:36;;;;;;;3.55;1.27;;;;;;;10.41;94.01;98000.06;5005923;28;20151;-69
2023/12/11 11:28:07;;;;;;;3.60;1.20;;;;;;;10.34;93.87;97971.28;4987107;28;21125;-69